sensor_id;sensor_type;location;lat;lon;timestamp;P1;durP1;ratioP1;P2;durP2;ratioP2
7985;SDS011;4038;42.612;23.066;2023-04-06T00:01:45;29.17;;;27.07;;
7985;SDS011;4038;42.612;23.066;2023-04-06T00:04:11;27.90;;;25.90;;
7985;SDS011;4038;42.612;23.066;2023-04-06T00:06:37;28.67;;;26.67;;
7985;SDS011;4038;42.612;23.066;2023-04-06T00:09:02;28.73;;;26.47;;
7985;SDS011;4038;42.612;23.066;2023-04-06T00:11:27;27.00;;;25.00;;
7985;SDS011;4038;42.612;23.066;2023-04-06T00:13:52;29.13;;;26.83;;
7985;SDS011;4038;42.612;23.066;2023-04-06T00:16:18;28.20;;;26.20;;
7985;SDS011;4038;42.612;23.066;2023-04-06T00:18:43;28.17;;;26.07;;
7985;SDS011;4038;42.612;23.066;2023-04-06T00:21:11;27.50;;;25.50;;
7985;SDS011;4038;42.612;23.066;2023-04-06T00:23:36;27.83;;;25.80;;
7985;SDS011;4038;42.612;23.066;2023-04-06T00:26:01;28.37;;;26.27;;
7985;SDS011;4038;42.612;23.066;2023-04-06T00:28:26;28.87;;;26.77;;
7985;SDS011;4038;42.612;23.066;2023-04-06T00:30:53;28.63;;;26.53;;
7985;SDS011;4038;42.612;23.066;2023-04-06T00:33:20;28.30;;;26.23;;
7985;SDS011;4038;42.612;23.066;2023-04-06T00:35:45;29.17;;;26.87;;
7985;SDS011;4038;42.612;23.066;2023-04-06T00:38:11;28.77;;;26.63;;
7985;SDS011;4038;42.612;23.066;2023-04-06T00:40:36;28.47;;;26.37;;
7985;SDS011;4038;42.612;23.066;2023-04-06T00:43:02;28.10;;;25.90;;
7985;SDS011;4038;42.612;23.066;2023-04-06T00:45:27;27.23;;;25.23;;
7985;SDS011;4038;42.612;23.066;2023-04-06T00:47:53;27.00;;;25.10;;
7985;SDS011;4038;42.612;23.066;2023-04-06T00:50:18;28.03;;;26.03;;
7985;SDS011;4038;42.612;23.066;2023-04-06T00:52:43;29.20;;;26.90;;
7985;SDS011;4038;42.612;23.066;2023-04-06T00:55:09;28.67;;;26.67;;
7985;SDS011;4038;42.612;23.066;2023-04-06T00:57:35;27.10;;;25.10;;
7985;SDS011;4038;42.612;23.066;2023-04-06T01:00:00;27.67;;;25.73;;
7985;SDS011;4038;42.612;23.066;2023-04-06T01:02:26;27.70;;;25.80;;
7985;SDS011;4038;42.612;23.066;2023-04-06T01:04:51;27.97;;;25.87;;
7985;SDS011;4038;42.612;23.066;2023-04-06T01:07:17;28.07;;;25.97;;
7985;SDS011;4038;42.612;23.066;2023-04-06T01:09:42;28.20;;;26.30;;
7985;SDS011;4038;42.612;23.066;2023-04-06T01:12:07;26.83;;;24.87;;
7985;SDS011;4038;42.612;23.066;2023-04-06T01:14:35;28.23;;;26.10;;
7985;SDS011;4038;42.612;23.066;2023-04-06T01:17:00;28.20;;;26.00;;
7985;SDS011;4038;42.612;23.066;2023-04-06T01:19:26;27.83;;;25.83;;
7985;SDS011;4038;42.612;23.066;2023-04-06T01:21:51;28.00;;;25.90;;
7985;SDS011;4038;42.612;23.066;2023-04-06T01:24:18;29.30;;;27.13;;
7985;SDS011;4038;42.612;23.066;2023-04-06T01:26:43;30.17;;;27.87;;
7985;SDS011;4038;42.612;23.066;2023-04-06T01:29:09;30.17;;;27.80;;
7985;SDS011;4038;42.612;23.066;2023-04-06T01:31:34;36.40;;;32.87;;
7985;SDS011;4038;42.612;23.066;2023-04-06T01:34:00;33.87;;;30.67;;
7985;SDS011;4038;42.612;23.066;2023-04-06T01:36:25;37.17;;;33.37;;
7985;SDS011;4038;42.612;23.066;2023-04-06T01:38:50;34.40;;;31.43;;
7985;SDS011;4038;42.612;23.066;2023-04-06T01:41:16;28.43;;;26.33;;
7985;SDS011;4038;42.612;23.066;2023-04-06T01:43:41;30.03;;;27.57;;
7985;SDS011;4038;42.612;23.066;2023-04-06T01:46:06;28.23;;;26.13;;
7985;SDS011;4038;42.612;23.066;2023-04-06T01:48:31;29.00;;;26.50;;
7985;SDS011;4038;42.612;23.066;2023-04-06T01:50:57;28.57;;;26.37;;
7985;SDS011;4038;42.612;23.066;2023-04-06T01:53:22;29.30;;;26.93;;
7985;SDS011;4038;42.612;23.066;2023-04-06T01:55:47;28.73;;;26.63;;
7985;SDS011;4038;42.612;23.066;2023-04-06T01:58:12;28.37;;;26.27;;
7985;SDS011;4038;42.612;23.066;2023-04-06T02:00:38;27.83;;;25.50;;
7985;SDS011;4038;42.612;23.066;2023-04-06T02:03:03;27.80;;;25.70;;
7985;SDS011;4038;42.612;23.066;2023-04-06T02:05:29;28.43;;;26.23;;
7985;SDS011;4038;42.612;23.066;2023-04-06T02:07:55;28.10;;;26.00;;
7985;SDS011;4038;42.612;23.066;2023-04-06T02:10:20;28.90;;;26.60;;
7985;SDS011;4038;42.612;23.066;2023-04-06T02:12:45;28.80;;;26.57;;
7985;SDS011;4038;42.612;23.066;2023-04-06T02:15:11;29.23;;;26.93;;
7985;SDS011;4038;42.612;23.066;2023-04-06T02:17:38;29.10;;;26.57;;
7985;SDS011;4038;42.612;23.066;2023-04-06T02:20:03;28.37;;;26.17;;
7985;SDS011;4038;42.612;23.066;2023-04-06T02:22:28;28.60;;;26.37;;
7985;SDS011;4038;42.612;23.066;2023-04-06T02:24:54;29.40;;;27.00;;
7985;SDS011;4038;42.612;23.066;2023-04-06T02:27:19;28.50;;;26.27;;
7985;SDS011;4038;42.612;23.066;2023-04-06T02:29:44;29.27;;;27.07;;
7985;SDS011;4038;42.612;23.066;2023-04-06T02:32:10;27.53;;;25.43;;
7985;SDS011;4038;42.612;23.066;2023-04-06T02:34:35;26.90;;;24.70;;
7985;SDS011;4038;42.612;23.066;2023-04-06T02:37:00;27.17;;;25.23;;
7985;SDS011;4038;42.612;23.066;2023-04-06T02:39:25;29.00;;;26.87;;
7985;SDS011;4038;42.612;23.066;2023-04-06T02:41:51;27.97;;;25.87;;
7985;SDS011;4038;42.612;23.066;2023-04-06T02:44:16;27.67;;;25.60;;
7985;SDS011;4038;42.612;23.066;2023-04-06T02:46:41;26.97;;;24.87;;
7985;SDS011;4038;42.612;23.066;2023-04-06T02:49:07;26.23;;;24.20;;
7985;SDS011;4038;42.612;23.066;2023-04-06T02:51:32;26.43;;;24.33;;
7985;SDS011;4038;42.612;23.066;2023-04-06T02:53:58;27.30;;;25.23;;
7985;SDS011;4038;42.612;23.066;2023-04-06T02:56:23;26.37;;;24.30;;
7985;SDS011;4038;42.612;23.066;2023-04-06T02:58:48;27.00;;;24.97;;
7985;SDS011;4038;42.612;23.066;2023-04-06T03:01:15;26.33;;;24.43;;
7985;SDS011;4038;42.612;23.066;2023-04-06T03:03:40;28.00;;;25.80;;
7985;SDS011;4038;42.612;23.066;2023-04-06T03:06:06;26.93;;;24.80;;
7985;SDS011;4038;42.612;23.066;2023-04-06T03:08:31;26.30;;;24.30;;
7985;SDS011;4038;42.612;23.066;2023-04-06T03:10:56;26.93;;;24.93;;
7985;SDS011;4038;42.612;23.066;2023-04-06T03:13:22;26.33;;;24.33;;
7985;SDS011;4038;42.612;23.066;2023-04-06T03:15:47;27.10;;;25.10;;
7985;SDS011;4038;42.612;23.066;2023-04-06T03:18:12;25.77;;;23.77;;
7985;SDS011;4038;42.612;23.066;2023-04-06T03:20:37;25.87;;;23.77;;
7985;SDS011;4038;42.612;23.066;2023-04-06T03:23:03;26.10;;;23.90;;
7985;SDS011;4038;42.612;23.066;2023-04-06T03:25:28;24.57;;;22.67;;
7985;SDS011;4038;42.612;23.066;2023-04-06T03:27:55;23.90;;;22.20;;
7985;SDS011;4038;42.612;23.066;2023-04-06T03:30:20;25.30;;;23.27;;
7985;SDS011;4038;42.612;23.066;2023-04-06T03:32:45;25.73;;;23.73;;
7985;SDS011;4038;42.612;23.066;2023-04-06T03:35:10;26.23;;;24.00;;
7985;SDS011;4038;42.612;23.066;2023-04-06T03:37:36;26.07;;;24.07;;
7985;SDS011;4038;42.612;23.066;2023-04-06T03:40:01;26.20;;;24.30;;
7985;SDS011;4038;42.612;23.066;2023-04-06T03:42:27;26.10;;;24.20;;
7985;SDS011;4038;42.612;23.066;2023-04-06T03:44:52;25.60;;;23.80;;
7985;SDS011;4038;42.612;23.066;2023-04-06T03:47:17;26.10;;;24.20;;
7985;SDS011;4038;42.612;23.066;2023-04-06T03:49:43;26.50;;;24.47;;
7985;SDS011;4038;42.612;23.066;2023-04-06T03:52:08;26.40;;;24.30;;
7985;SDS011;4038;42.612;23.066;2023-04-06T03:54:33;27.03;;;25.03;;
7985;SDS011;4038;42.612;23.066;2023-04-06T03:56:58;26.90;;;24.97;;
7985;SDS011;4038;42.612;23.066;2023-04-06T03:59:25;26.60;;;24.57;;
7985;SDS011;4038;42.612;23.066;2023-04-06T04:01:50;25.77;;;23.83;;
7985;SDS011;4038;42.612;23.066;2023-04-06T04:04:16;26.40;;;24.33;;
7985;SDS011;4038;42.612;23.066;2023-04-06T04:06:41;25.93;;;23.93;;
7985;SDS011;4038;42.612;23.066;2023-04-06T04:09:06;25.53;;;23.67;;
7985;SDS011;4038;42.612;23.066;2023-04-06T04:11:31;26.77;;;24.67;;
7985;SDS011;4038;42.612;23.066;2023-04-06T04:13:57;25.53;;;23.53;;
7985;SDS011;4038;42.612;23.066;2023-04-06T04:16:22;25.20;;;23.30;;
7985;SDS011;4038;42.612;23.066;2023-04-06T04:18:47;26.00;;;24.10;;
7985;SDS011;4038;42.612;23.066;2023-04-06T04:21:13;26.07;;;23.90;;
7985;SDS011;4038;42.612;23.066;2023-04-06T04:23:38;25.53;;;23.50;;
7985;SDS011;4038;42.612;23.066;2023-04-06T04:26:04;25.10;;;23.30;;
7985;SDS011;4038;42.612;23.066;2023-04-06T04:28:29;26.50;;;24.30;;
7985;SDS011;4038;42.612;23.066;2023-04-06T04:30:55;24.93;;;23.13;;
7985;SDS011;4038;42.612;23.066;2023-04-06T04:33:20;26.70;;;24.70;;
7985;SDS011;4038;42.612;23.066;2023-04-06T04:35:45;25.80;;;23.87;;
7985;SDS011;4038;42.612;23.066;2023-04-06T04:38:11;25.40;;;23.20;;
7985;SDS011;4038;42.612;23.066;2023-04-06T04:40:36;26.33;;;24.00;;
7985;SDS011;4038;42.612;23.066;2023-04-06T04:43:01;24.33;;;22.53;;
7985;SDS011;4038;42.612;23.066;2023-04-06T04:45:26;25.23;;;23.23;;
7985;SDS011;4038;42.612;23.066;2023-04-06T04:47:52;25.60;;;23.73;;
7985;SDS011;4038;42.612;23.066;2023-04-06T04:50:17;24.70;;;22.70;;
7985;SDS011;4038;42.612;23.066;2023-04-06T04:52:42;25.93;;;23.73;;
7985;SDS011;4038;42.612;23.066;2023-04-06T04:55:07;25.97;;;23.97;;
7985;SDS011;4038;42.612;23.066;2023-04-06T04:57:33;24.87;;;23.00;;
7985;SDS011;4038;42.612;23.066;2023-04-06T04:59:58;26.87;;;24.43;;
7985;SDS011;4038;42.612;23.066;2023-04-06T05:02:23;24.93;;;22.90;;
7985;SDS011;4038;42.612;23.066;2023-04-06T05:04:48;24.47;;;22.10;;
7985;SDS011;4038;42.612;23.066;2023-04-06T05:07:14;25.27;;;23.37;;
7985;SDS011;4038;42.612;23.066;2023-04-06T05:09:40;24.40;;;22.70;;
7985;SDS011;4038;42.612;23.066;2023-04-06T05:12:05;24.13;;;22.10;;
7985;SDS011;4038;42.612;23.066;2023-04-06T05:14:31;23.90;;;22.03;;
7985;SDS011;4038;42.612;23.066;2023-04-06T05:16:56;24.23;;;22.43;;
7985;SDS011;4038;42.612;23.066;2023-04-06T05:19:21;26.00;;;24.00;;
7985;SDS011;4038;42.612;23.066;2023-04-06T05:21:47;25.40;;;23.60;;
7985;SDS011;4038;42.612;23.066;2023-04-06T05:24:12;27.23;;;25.17;;
7985;SDS011;4038;42.612;23.066;2023-04-06T05:26:37;26.43;;;24.40;;
7985;SDS011;4038;42.612;23.066;2023-04-06T05:29:02;26.07;;;24.20;;
7985;SDS011;4038;42.612;23.066;2023-04-06T05:31:28;25.90;;;23.90;;
7985;SDS011;4038;42.612;23.066;2023-04-06T05:33:53;25.73;;;23.90;;
7985;SDS011;4038;42.612;23.066;2023-04-06T05:36:19;25.53;;;23.73;;
7985;SDS011;4038;42.612;23.066;2023-04-06T05:38:44;26.47;;;24.57;;
7985;SDS011;4038;42.612;23.066;2023-04-06T05:41:10;25.00;;;23.13;;
7985;SDS011;4038;42.612;23.066;2023-04-06T05:43:35;25.27;;;23.37;;
7985;SDS011;4038;42.612;23.066;2023-04-06T05:46:00;25.97;;;24.00;;
7985;SDS011;4038;42.612;23.066;2023-04-06T05:48:25;25.00;;;23.17;;
7985;SDS011;4038;42.612;23.066;2023-04-06T05:50:51;26.93;;;24.93;;
7985;SDS011;4038;42.612;23.066;2023-04-06T05:53:16;26.33;;;24.23;;
7985;SDS011;4038;42.612;23.066;2023-04-06T05:55:43;26.50;;;24.40;;
7985;SDS011;4038;42.612;23.066;2023-04-06T05:58:08;26.63;;;24.53;;
7985;SDS011;4038;42.612;23.066;2023-04-06T06:00:34;26.30;;;24.37;;
7985;SDS011;4038;42.612;23.066;2023-04-06T06:02:59;27.30;;;25.07;;
7985;SDS011;4038;42.612;23.066;2023-04-06T06:05:24;26.67;;;24.63;;
7985;SDS011;4038;42.612;23.066;2023-04-06T06:07:50;27.30;;;25.30;;
7985;SDS011;4038;42.612;23.066;2023-04-06T06:10:15;26.77;;;24.87;;
7985;SDS011;4038;42.612;23.066;2023-04-06T06:12:40;24.77;;;23.00;;
7985;SDS011;4038;42.612;23.066;2023-04-06T06:15:06;26.40;;;24.40;;
7985;SDS011;4038;42.612;23.066;2023-04-06T06:17:31;26.53;;;24.60;;
7985;SDS011;4038;42.612;23.066;2023-04-06T06:19:57;26.90;;;24.90;;
7985;SDS011;4038;42.612;23.066;2023-04-06T06:22:22;28.43;;;26.33;;
7985;SDS011;4038;42.612;23.066;2023-04-06T06:24:47;27.23;;;25.23;;
7985;SDS011;4038;42.612;23.066;2023-04-06T06:27:14;26.67;;;24.73;;
7985;SDS011;4038;42.612;23.066;2023-04-06T06:29:39;27.43;;;25.43;;
7985;SDS011;4038;42.612;23.066;2023-04-06T06:32:05;27.63;;;25.43;;
7985;SDS011;4038;42.612;23.066;2023-04-06T06:34:30;26.23;;;24.30;;
7985;SDS011;4038;42.612;23.066;2023-04-06T06:36:55;26.63;;;24.63;;
7985;SDS011;4038;42.612;23.066;2023-04-06T06:39:21;26.40;;;24.50;;
7985;SDS011;4038;42.612;23.066;2023-04-06T06:41:46;26.20;;;24.23;;
7985;SDS011;4038;42.612;23.066;2023-04-06T06:44:12;25.97;;;24.17;;
7985;SDS011;4038;42.612;23.066;2023-04-06T06:46:37;27.07;;;25.03;;
7985;SDS011;4038;42.612;23.066;2023-04-06T06:49:02;27.63;;;25.50;;
7985;SDS011;4038;42.612;23.066;2023-04-06T06:51:28;27.13;;;25.13;;
7985;SDS011;4038;42.612;23.066;2023-04-06T06:53:53;27.60;;;25.60;;
7985;SDS011;4038;42.612;23.066;2023-04-06T06:56:18;27.27;;;25.17;;
7985;SDS011;4038;42.612;23.066;2023-04-06T06:58:43;28.57;;;26.27;;
7985;SDS011;4038;42.612;23.066;2023-04-06T07:01:09;28.13;;;25.97;;
7985;SDS011;4038;42.612;23.066;2023-04-06T07:03:34;28.27;;;26.17;;
7985;SDS011;4038;42.612;23.066;2023-04-06T07:06:00;26.53;;;24.60;;
7985;SDS011;4038;42.612;23.066;2023-04-06T07:08:25;26.43;;;24.53;;
7985;SDS011;4038;42.612;23.066;2023-04-06T07:10:51;27.60;;;25.60;;
7985;SDS011;4038;42.612;23.066;2023-04-06T07:13:21;26.93;;;24.93;;
7985;SDS011;4038;42.612;23.066;2023-04-06T07:15:51;25.43;;;23.53;;
7985;SDS011;4038;42.612;23.066;2023-04-06T07:18:17;25.23;;;23.33;;
7985;SDS011;4038;42.612;23.066;2023-04-06T07:20:43;24.50;;;22.70;;
7985;SDS011;4038;42.612;23.066;2023-04-06T07:23:08;24.63;;;22.77;;
7985;SDS011;4038;42.612;23.066;2023-04-06T07:25:33;24.27;;;22.60;;
7985;SDS011;4038;42.612;23.066;2023-04-06T07:27:58;24.93;;;23.10;;
7985;SDS011;4038;42.612;23.066;2023-04-06T07:30:24;25.57;;;23.60;;
7985;SDS011;4038;42.612;23.066;2023-04-06T07:32:51;25.50;;;23.60;;
7985;SDS011;4038;42.612;23.066;2023-04-06T07:35:16;26.57;;;24.57;;
7985;SDS011;4038;42.612;23.066;2023-04-06T07:37:42;26.07;;;24.17;;
7985;SDS011;4038;42.612;23.066;2023-04-06T07:40:07;26.27;;;24.37;;
7985;SDS011;4038;42.612;23.066;2023-04-06T07:42:33;26.70;;;24.80;;
7985;SDS011;4038;42.612;23.066;2023-04-06T07:44:58;24.97;;;23.17;;
7985;SDS011;4038;42.612;23.066;2023-04-06T07:47:23;26.33;;;24.43;;
7985;SDS011;4038;42.612;23.066;2023-04-06T07:49:49;27.20;;;25.03;;
7985;SDS011;4038;42.612;23.066;2023-04-06T07:52:14;26.50;;;24.37;;
7985;SDS011;4038;42.612;23.066;2023-04-06T07:54:40;24.23;;;22.53;;
7985;SDS011;4038;42.612;23.066;2023-04-06T07:57:05;26.13;;;24.23;;
7985;SDS011;4038;42.612;23.066;2023-04-06T07:59:31;25.33;;;23.43;;
7985;SDS011;4038;42.612;23.066;2023-04-06T08:01:56;27.67;;;25.47;;
7985;SDS011;4038;42.612;23.066;2023-04-06T08:04:21;23.77;;;22.03;;
7985;SDS011;4038;42.612;23.066;2023-04-06T08:06:47;25.40;;;23.63;;
7985;SDS011;4038;42.612;23.066;2023-04-06T08:09:12;25.13;;;23.20;;
7985;SDS011;4038;42.612;23.066;2023-04-06T08:11:37;24.43;;;22.73;;
7985;SDS011;4038;42.612;23.066;2023-04-06T08:14:03;26.80;;;24.80;;
7985;SDS011;4038;42.612;23.066;2023-04-06T08:16:28;25.27;;;23.47;;
7985;SDS011;4038;42.612;23.066;2023-04-06T08:18:53;26.27;;;24.33;;
7985;SDS011;4038;42.612;23.066;2023-04-06T08:21:18;25.67;;;23.87;;
7985;SDS011;4038;42.612;23.066;2023-04-06T08:23:44;26.93;;;24.27;;
7985;SDS011;4038;42.612;23.066;2023-04-06T08:26:11;27.47;;;25.23;;
7985;SDS011;4038;42.612;23.066;2023-04-06T08:28:36;26.03;;;24.10;;
7985;SDS011;4038;42.612;23.066;2023-04-06T08:31:05;27.30;;;25.40;;
7985;SDS011;4038;42.612;23.066;2023-04-06T08:33:30;27.50;;;25.50;;
7985;SDS011;4038;42.612;23.066;2023-04-06T08:35:56;28.00;;;25.80;;
7985;SDS011;4038;42.612;23.066;2023-04-06T08:38:21;27.67;;;25.77;;
7985;SDS011;4038;42.612;23.066;2023-04-06T08:40:46;25.50;;;23.77;;
7985;SDS011;4038;42.612;23.066;2023-04-06T08:43:13;26.17;;;24.47;;
7985;SDS011;4038;42.612;23.066;2023-04-06T08:45:40;26.27;;;24.47;;
7985;SDS011;4038;42.612;23.066;2023-04-06T08:48:05;26.87;;;24.97;;
7985;SDS011;4038;42.612;23.066;2023-04-06T08:50:32;27.23;;;25.33;;
7985;SDS011;4038;42.612;23.066;2023-04-06T08:52:57;26.43;;;24.33;;
7985;SDS011;4038;42.612;23.066;2023-04-06T08:55:23;26.50;;;24.70;;
7985;SDS011;4038;42.612;23.066;2023-04-06T08:57:48;23.83;;;22.07;;
7985;SDS011;4038;42.612;23.066;2023-04-06T09:00:14;28.00;;;25.83;;
7985;SDS011;4038;42.612;23.066;2023-04-06T09:02:43;26.50;;;24.70;;
7985;SDS011;4038;42.612;23.066;2023-04-06T09:05:09;27.10;;;25.30;;
7985;SDS011;4038;42.612;23.066;2023-04-06T09:07:38;27.30;;;25.30;;
7985;SDS011;4038;42.612;23.066;2023-04-06T09:10:04;26.87;;;25.00;;
7985;SDS011;4038;42.612;23.066;2023-04-06T09:12:30;25.73;;;23.97;;
7985;SDS011;4038;42.612;23.066;2023-04-06T09:14:56;26.03;;;24.33;;
7985;SDS011;4038;42.612;23.066;2023-04-06T09:17:25;25.43;;;23.80;;
7985;SDS011;4038;42.612;23.066;2023-04-06T09:19:51;25.47;;;23.73;;
7985;SDS011;4038;42.612;23.066;2023-04-06T09:22:16;24.67;;;23.07;;
7985;SDS011;4038;42.612;23.066;2023-04-06T09:24:43;26.77;;;24.97;;
7985;SDS011;4038;42.612;23.066;2023-04-06T09:27:08;27.07;;;25.00;;
7985;SDS011;4038;42.612;23.066;2023-04-06T09:29:33;26.77;;;24.87;;
7985;SDS011;4038;42.612;23.066;2023-04-06T09:32:06;25.27;;;23.37;;
7985;SDS011;4038;42.612;23.066;2023-04-06T09:34:32;25.73;;;23.83;;
7985;SDS011;4038;42.612;23.066;2023-04-06T09:36:57;27.47;;;25.37;;
7985;SDS011;4038;42.612;23.066;2023-04-06T09:39:23;26.80;;;25.00;;
7985;SDS011;4038;42.612;23.066;2023-04-06T09:41:52;25.90;;;24.20;;
7985;SDS011;4038;42.612;23.066;2023-04-06T09:44:17;27.03;;;25.03;;
7985;SDS011;4038;42.612;23.066;2023-04-06T09:46:44;26.47;;;24.37;;
7985;SDS011;4038;42.612;23.066;2023-04-06T09:49:10;26.03;;;24.23;;
7985;SDS011;4038;42.612;23.066;2023-04-06T09:54:07;28.50;;;26.50;;
7985;SDS011;4038;42.612;23.066;2023-04-06T10:01:55;24.87;;;23.17;;
7985;SDS011;4038;42.612;23.066;2023-04-06T10:06:54;25.23;;;23.53;;
7985;SDS011;4038;42.612;23.066;2023-04-06T10:09:23;25.90;;;24.10;;
7985;SDS011;4038;42.612;23.066;2023-04-06T10:11:50;26.60;;;24.53;;
7985;SDS011;4038;42.612;23.066;2023-04-06T10:14:16;25.73;;;23.83;;
7985;SDS011;4038;42.612;23.066;2023-04-06T10:16:42;25.53;;;23.83;;
7985;SDS011;4038;42.612;23.066;2023-04-06T10:19:13;26.17;;;24.37;;
7985;SDS011;4038;42.612;23.066;2023-04-06T10:21:38;26.20;;;24.20;;
7985;SDS011;4038;42.612;23.066;2023-04-06T10:24:06;27.13;;;25.17;;
7985;SDS011;4038;42.612;23.066;2023-04-06T10:26:34;26.27;;;24.47;;
7985;SDS011;4038;42.612;23.066;2023-04-06T10:29:02;25.70;;;23.90;;
7985;SDS011;4038;42.612;23.066;2023-04-06T10:31:28;25.63;;;23.77;;
7985;SDS011;4038;42.612;23.066;2023-04-06T10:33:57;26.67;;;24.67;;
7985;SDS011;4038;42.612;23.066;2023-04-06T10:36:26;25.70;;;23.93;;
7985;SDS011;4038;42.612;23.066;2023-04-06T10:38:56;25.73;;;23.83;;
7985;SDS011;4038;42.612;23.066;2023-04-06T10:41:22;25.57;;;23.80;;
7985;SDS011;4038;42.612;23.066;2023-04-06T10:43:54;25.27;;;23.57;;
7985;SDS011;4038;42.612;23.066;2023-04-06T10:46:24;25.90;;;24.10;;
7985;SDS011;4038;42.612;23.066;2023-04-06T10:48:49;24.63;;;22.93;;
7985;SDS011;4038;42.612;23.066;2023-04-06T10:51:16;28.57;;;26.53;;
7985;SDS011;4038;42.612;23.066;2023-04-06T10:53:42;25.23;;;23.53;;
7985;SDS011;4038;42.612;23.066;2023-04-06T10:56:13;27.77;;;25.77;;
7985;SDS011;4038;42.612;23.066;2023-04-06T10:58:49;26.67;;;24.67;;
7985;SDS011;4038;42.612;23.066;2023-04-06T11:01:21;26.70;;;24.90;;
7985;SDS011;4038;42.612;23.066;2023-04-06T11:03:50;26.00;;;24.07;;
7985;SDS011;4038;42.612;23.066;2023-04-06T11:08:44;25.83;;;24.03;;
7985;SDS011;4038;42.612;23.066;2023-04-06T11:11:10;25.43;;;23.70;;
7985;SDS011;4038;42.612;23.066;2023-04-06T11:13:44;26.30;;;24.40;;
7985;SDS011;4038;42.612;23.066;2023-04-06T11:16:19;28.73;;;26.47;;
7985;SDS011;4038;42.612;23.066;2023-04-06T11:21:13;26.67;;;24.73;;
7985;SDS011;4038;42.612;23.066;2023-04-06T11:23:38;26.80;;;24.77;;
7985;SDS011;4038;42.612;23.066;2023-04-06T11:26:03;25.47;;;23.57;;
7985;SDS011;4038;42.612;23.066;2023-04-06T11:28:29;26.00;;;24.20;;
7985;SDS011;4038;42.612;23.066;2023-04-06T11:30:54;26.00;;;24.07;;
7985;SDS011;4038;42.612;23.066;2023-04-06T11:33:21;25.47;;;23.67;;
7985;SDS011;4038;42.612;23.066;2023-04-06T11:35:47;26.10;;;24.20;;
7985;SDS011;4038;42.612;23.066;2023-04-06T11:38:17;25.60;;;23.80;;
7985;SDS011;4038;42.612;23.066;2023-04-06T11:40:42;25.97;;;24.17;;
7985;SDS011;4038;42.612;23.066;2023-04-06T11:43:10;25.80;;;23.90;;
7985;SDS011;4038;42.612;23.066;2023-04-06T11:45:42;25.00;;;23.40;;
7985;SDS011;4038;42.612;23.066;2023-04-06T11:48:19;25.90;;;24.13;;
7985;SDS011;4038;42.612;23.066;2023-04-06T11:50:48;25.90;;;24.07;;
7985;SDS011;4038;42.612;23.066;2023-04-06T11:53:20;25.50;;;23.73;;
7985;SDS011;4038;42.612;23.066;2023-04-06T11:55:45;27.00;;;25.20;;
7985;SDS011;4038;42.612;23.066;2023-04-06T11:58:12;25.57;;;23.87;;
7985;SDS011;4038;42.612;23.066;2023-04-06T12:00:37;26.10;;;24.40;;
7985;SDS011;4038;42.612;23.066;2023-04-06T12:03:02;24.77;;;23.07;;
7985;SDS011;4038;42.612;23.066;2023-04-06T12:05:28;26.40;;;24.60;;
7985;SDS011;4038;42.612;23.066;2023-04-06T12:07:53;25.70;;;24.00;;
7985;SDS011;4038;42.612;23.066;2023-04-06T12:10:19;25.23;;;23.53;;
7985;SDS011;4038;42.612;23.066;2023-04-06T12:12:44;25.70;;;24.03;;
7985;SDS011;4038;42.612;23.066;2023-04-06T12:15:10;26.10;;;24.33;;
7985;SDS011;4038;42.612;23.066;2023-04-06T12:17:35;24.80;;;23.10;;
7985;SDS011;4038;42.612;23.066;2023-04-06T12:20:01;24.90;;;23.20;;
7985;SDS011;4038;42.612;23.066;2023-04-06T12:22:27;25.23;;;23.43;;
7985;SDS011;4038;42.612;23.066;2023-04-06T12:24:56;26.87;;;25.03;;
7985;SDS011;4038;42.612;23.066;2023-04-06T12:27:21;26.57;;;24.77;;
7985;SDS011;4038;42.612;23.066;2023-04-06T12:29:47;27.17;;;25.27;;
7985;SDS011;4038;42.612;23.066;2023-04-06T12:32:12;24.83;;;23.23;;
7985;SDS011;4038;42.612;23.066;2023-04-06T12:34:37;25.97;;;23.87;;
7985;SDS011;4038;42.612;23.066;2023-04-06T12:37:03;25.10;;;23.50;;
7985;SDS011;4038;42.612;23.066;2023-04-06T12:39:28;25.87;;;24.07;;
7985;SDS011;4038;42.612;23.066;2023-04-06T12:41:53;23.87;;;22.27;;
7985;SDS011;4038;42.612;23.066;2023-04-06T12:44:18;25.77;;;24.07;;
7985;SDS011;4038;42.612;23.066;2023-04-06T12:46:44;25.60;;;23.90;;
7985;SDS011;4038;42.612;23.066;2023-04-06T12:49:10;25.53;;;23.80;;
7985;SDS011;4038;42.612;23.066;2023-04-06T12:51:36;25.13;;;23.43;;
7985;SDS011;4038;42.612;23.066;2023-04-06T12:54:04;26.03;;;24.30;;
7985;SDS011;4038;42.612;23.066;2023-04-06T12:56:29;25.73;;;24.03;;
7985;SDS011;4038;42.612;23.066;2023-04-06T12:58:56;26.37;;;24.63;;
7985;SDS011;4038;42.612;23.066;2023-04-06T13:01:21;26.23;;;24.53;;
7985;SDS011;4038;42.612;23.066;2023-04-06T13:03:46;25.73;;;23.93;;
7985;SDS011;4038;42.612;23.066;2023-04-06T13:06:12;26.77;;;24.93;;
7985;SDS011;4038;42.612;23.066;2023-04-06T13:08:38;26.07;;;24.33;;
7985;SDS011;4038;42.612;23.066;2023-04-06T13:11:03;27.57;;;25.57;;
7985;SDS011;4038;42.612;23.066;2023-04-06T13:13:30;28.17;;;26.10;;
7985;SDS011;4038;42.612;23.066;2023-04-06T13:15:59;26.83;;;24.83;;
7985;SDS011;4038;42.612;23.066;2023-04-06T13:18:24;25.17;;;23.47;;
7985;SDS011;4038;42.612;23.066;2023-04-06T13:20:49;24.70;;;22.90;;
7985;SDS011;4038;42.612;23.066;2023-04-06T13:23:15;24.50;;;22.80;;
7985;SDS011;4038;42.612;23.066;2023-04-06T13:25:41;25.07;;;23.27;;
7985;SDS011;4038;42.612;23.066;2023-04-06T13:28:06;27.30;;;25.40;;
7985;SDS011;4038;42.612;23.066;2023-04-06T13:30:31;25.73;;;23.90;;
7985;SDS011;4038;42.612;23.066;2023-04-06T13:32:57;25.30;;;23.43;;
7985;SDS011;4038;42.612;23.066;2023-04-06T13:35:22;24.87;;;22.87;;
7985;SDS011;4038;42.612;23.066;2023-04-06T13:37:48;24.17;;;22.37;;
7985;SDS011;4038;42.612;23.066;2023-04-06T13:40:13;25.43;;;23.73;;
7985;SDS011;4038;42.612;23.066;2023-04-06T13:42:38;27.67;;;25.63;;
7985;SDS011;4038;42.612;23.066;2023-04-06T13:45:05;28.00;;;25.60;;
7985;SDS011;4038;42.612;23.066;2023-04-06T13:47:31;23.83;;;22.13;;
7985;SDS011;4038;42.612;23.066;2023-04-06T13:49:56;26.00;;;24.00;;
7985;SDS011;4038;42.612;23.066;2023-04-06T13:52:21;25.03;;;23.23;;
7985;SDS011;4038;42.612;23.066;2023-04-06T13:54:47;25.17;;;23.43;;
7985;SDS011;4038;42.612;23.066;2023-04-06T13:57:12;26.40;;;24.60;;
7985;SDS011;4038;42.612;23.066;2023-04-06T13:59:37;26.00;;;24.07;;
7985;SDS011;4038;42.612;23.066;2023-04-06T14:02:03;25.87;;;23.83;;
7985;SDS011;4038;42.612;23.066;2023-04-06T14:04:29;26.40;;;24.37;;
7985;SDS011;4038;42.612;23.066;2023-04-06T14:06:54;26.10;;;24.10;;
7985;SDS011;4038;42.612;23.066;2023-04-06T14:09:19;25.77;;;23.93;;
7985;SDS011;4038;42.612;23.066;2023-04-06T14:11:45;25.93;;;24.13;;
7985;SDS011;4038;42.612;23.066;2023-04-06T14:14:10;24.90;;;23.07;;
7985;SDS011;4038;42.612;23.066;2023-04-06T14:16:35;26.43;;;24.53;;
7985;SDS011;4038;42.612;23.066;2023-04-06T14:19:01;25.83;;;24.13;;
7985;SDS011;4038;42.612;23.066;2023-04-06T14:21:26;25.03;;;23.23;;
7985;SDS011;4038;42.612;23.066;2023-04-06T14:23:51;26.77;;;24.97;;
7985;SDS011;4038;42.612;23.066;2023-04-06T14:26:17;24.87;;;23.17;;
7985;SDS011;4038;42.612;23.066;2023-04-06T14:28:42;23.97;;;22.37;;
7985;SDS011;4038;42.612;23.066;2023-04-06T14:31:11;24.67;;;22.97;;
7985;SDS011;4038;42.612;23.066;2023-04-06T14:33:38;25.87;;;23.97;;
7985;SDS011;4038;42.612;23.066;2023-04-06T14:36:03;27.43;;;25.63;;
7985;SDS011;4038;42.612;23.066;2023-04-06T14:38:29;26.90;;;25.03;;
7985;SDS011;4038;42.612;23.066;2023-04-06T14:40:54;25.80;;;24.03;;